sensor_id;sensor_type;location;lat;lon;timestamp;temperature;humidity
22114;DHT22;11223;49.968;9.062;2022-12-07T00:00:14;2.40;99.90
22114;DHT22;11223;49.968;9.062;2022-12-07T00:02:40;2.40;99.90
22114;DHT22;11223;49.968;9.062;2022-12-07T00:05:06;2.40;99.90
22114;DHT22;11223;49.968;9.062;2022-12-07T00:07:32;2.40;99.90
22114;DHT22;11223;49.968;9.062;2022-12-07T00:09:58;2.30;99.90
22114;DHT22;11223;49.968;9.062;2022-12-07T00:12:23;2.30;99.90
22114;DHT22;11223;49.968;9.062;2022-12-07T00:14:49;2.30;99.90
22114;DHT22;11223;49.968;9.062;2022-12-07T00:17:14;2.30;99.90
22114;DHT22;11223;49.968;9.062;2022-12-07T00:19:40;2.40;99.90
22114;DHT22;11223;49.968;9.062;2022-12-07T00:22:05;2.40;99.90
22114;DHT22;11223;49.968;9.062;2022-12-07T00:24:31;2.30;99.90
22114;DHT22;11223;49.968;9.062;2022-12-07T00:26:57;2.30;99.90
22114;DHT22;11223;49.968;9.062;2022-12-07T00:29:22;2.40;99.90
22114;DHT22;11223;49.968;9.062;2022-12-07T00:31:48;2.40;99.90
22114;DHT22;11223;49.968;9.062;2022-12-07T00:34:17;2.40;99.90
22114;DHT22;11223;49.968;9.062;2022-12-07T00:36:43;2.30;99.90
22114;DHT22;11223;49.968;9.062;2022-12-07T00:39:08;2.40;99.90
22114;DHT22;11223;49.968;9.062;2022-12-07T00:41:34;2.40;99.90
22114;DHT22;11223;49.968;9.062;2022-12-07T00:44:00;2.40;99.90
22114;DHT22;11223;49.968;9.062;2022-12-07T00:46:26;2.40;99.90
22114;DHT22;11223;49.968;9.062;2022-12-07T00:48:58;2.30;99.90
22114;DHT22;11223;49.968;9.062;2022-12-07T00:51:24;2.40;99.90
22114;DHT22;11223;49.968;9.062;2022-12-07T00:53:51;2.40;99.90
22114;DHT22;11223;49.968;9.062;2022-12-07T00:56:23;2.40;99.90
22114;DHT22;11223;49.968;9.062;2022-12-07T00:58:56;2.40;99.90
22114;DHT22;11223;49.968;9.062;2022-12-07T01:01:22;2.40;99.90
22114;DHT22;11223;49.968;9.062;2022-12-07T01:03:48;2.50;99.90
22114;DHT22;11223;49.968;9.062;2022-12-07T01:06:17;2.40;99.90
22114;DHT22;11223;49.968;9.062;2022-12-07T01:08:44;2.40;99.90
22114;DHT22;11223;49.968;9.062;2022-12-07T01:11:12;2.40;99.90
22114;DHT22;11223;49.968;9.062;2022-12-07T01:13:39;2.40;99.90
22114;DHT22;11223;49.968;9.062;2022-12-07T01:16:06;2.40;99.90
22114;DHT22;11223;49.968;9.062;2022-12-07T01:18:34;2.40;99.90
22114;DHT22;11223;49.968;9.062;2022-12-07T01:21:02;2.40;99.90
22114;DHT22;11223;49.968;9.062;2022-12-07T01:23:28;2.40;99.90
22114;DHT22;11223;49.968;9.062;2022-12-07T01:25:56;2.40;99.90
22114;DHT22;11223;49.968;9.062;2022-12-07T01:28:22;2.40;99.90
22114;DHT22;11223;49.968;9.062;2022-12-07T01:33:23;2.40;99.90
22114;DHT22;11223;49.968;9.062;2022-12-07T01:35:49;2.40;99.90
22114;DHT22;11223;49.968;9.062;2022-12-07T01:38:14;2.40;99.90
22114;DHT22;11223;49.968;9.062;2022-12-07T01:40:40;2.40;99.90
22114;DHT22;11223;49.968;9.062;2022-12-07T01:43:26;2.50;99.90
22114;DHT22;11223;49.968;9.062;2022-12-07T01:45:52;2.40;99.90
22114;DHT22;11223;49.968;9.062;2022-12-07T01:48:21;2.40;99.90
22114;DHT22;11223;49.968;9.062;2022-12-07T01:50:48;2.50;99.90
22114;DHT22;11223;49.968;9.062;2022-12-07T01:53:16;2.50;99.90
22114;DHT22;11223;49.968;9.062;2022-12-07T01:55:46;2.50;99.90
22114;DHT22;11223;49.968;9.062;2022-12-07T01:58:14;2.50;99.90
22114;DHT22;11223;49.968;9.062;2022-12-07T02:00:40;2.50;99.90
22114;DHT22;11223;49.968;9.062;2022-12-07T02:05:35;2.50;99.90
22114;DHT22;11223;49.968;9.062;2022-12-07T02:08:03;2.50;99.90
22114;DHT22;11223;49.968;9.062;2022-12-07T02:10:30;2.50;99.90
22114;DHT22;11223;49.968;9.062;2022-12-07T02:13:11;2.50;99.90
22114;DHT22;11223;49.968;9.062;2022-12-07T02:32:11;2.50;99.90
22114;DHT22;11223;49.968;9.062;2022-12-07T02:34:55;2.60;99.90
22114;DHT22;11223;49.968;9.062;2022-12-07T02:37:42;2.60;99.90
22114;DHT22;11223;49.968;9.062;2022-12-07T02:40:29;2.60;99.90
22114;DHT22;11223;49.968;9.062;2022-12-07T02:43:04;2.60;99.90
22114;DHT22;11223;49.968;9.062;2022-12-07T02:45:32;2.60;99.90
22114;DHT22;11223;49.968;9.062;2022-12-07T02:48:00;2.60;99.90
22114;DHT22;11223;49.968;9.062;2022-12-07T02:50:26;2.70;99.90
22114;DHT22;11223;49.968;9.062;2022-12-07T02:52:52;2.70;99.90
22114;DHT22;11223;49.968;9.062;2022-12-07T02:55:21;2.70;99.90
22114;DHT22;11223;49.968;9.062;2022-12-07T03:00:38;2.70;99.90
22114;DHT22;11223;49.968;9.062;2022-12-07T03:03:12;2.80;99.90
22114;DHT22;11223;49.968;9.062;2022-12-07T03:06:08;2.80;99.90
22114;DHT22;11223;49.968;9.062;2022-12-07T03:11:14;2.80;99.90
22114;DHT22;11223;49.968;9.062;2022-12-07T03:16:22;2.80;99.90
22114;DHT22;11223;49.968;9.062;2022-12-07T03:18:58;2.80;99.90
22114;DHT22;11223;49.968;9.062;2022-12-07T03:21:31;2.80;99.90
22114;DHT22;11223;49.968;9.062;2022-12-07T03:23:59;2.90;99.90
22114;DHT22;11223;49.968;9.062;2022-12-07T03:26:32;2.90;99.90
22114;DHT22;11223;49.968;9.062;2022-12-07T03:29:04;2.90;99.90
22114;DHT22;11223;49.968;9.062;2022-12-07T03:31:35;2.90;99.90
22114;DHT22;11223;49.968;9.062;2022-12-07T03:34:11;2.90;99.90
22114;DHT22;11223;49.968;9.062;2022-12-07T03:36:41;2.90;99.90
22114;DHT22;11223;49.968;9.062;2022-12-07T03:39:32;3.00;99.90
22114;DHT22;11223;49.968;9.062;2022-12-07T03:41:59;3.00;99.90
22114;DHT22;11223;49.968;9.062;2022-12-07T03:44:27;3.00;99.90
22114;DHT22;11223;49.968;9.062;2022-12-07T03:49:25;3.10;99.90
22114;DHT22;11223;49.968;9.062;2022-12-07T03:54:26;3.10;99.90
22114;DHT22;11223;49.968;9.062;2022-12-07T03:56:54;3.10;99.90
22114;DHT22;11223;49.968;9.062;2022-12-07T03:59:21;3.10;99.90
22114;DHT22;11223;49.968;9.062;2022-12-07T04:01:55;3.10;99.90
22114;DHT22;11223;49.968;9.062;2022-12-07T04:04:23;3.10;99.90
22114;DHT22;11223;49.968;9.062;2022-12-07T04:06:49;3.10;99.90
22114;DHT22;11223;49.968;9.062;2022-12-07T04:09:15;3.10;99.90
22114;DHT22;11223;49.968;9.062;2022-12-07T04:11:41;3.10;99.90
22114;DHT22;11223;49.968;9.062;2022-12-07T04:14:07;3.10;99.90
22114;DHT22;11223;49.968;9.062;2022-12-07T04:16:54;3.10;99.90
22114;DHT22;11223;49.968;9.062;2022-12-07T04:19:24;3.10;99.90
22114;DHT22;11223;49.968;9.062;2022-12-07T04:21:50;3.20;99.90
22114;DHT22;11223;49.968;9.062;2022-12-07T04:24:16;3.20;99.90
22114;DHT22;11223;49.968;9.062;2022-12-07T04:26:42;3.20;99.90
22114;DHT22;11223;49.968;9.062;2022-12-07T04:29:09;3.20;99.90
22114;DHT22;11223;49.968;9.062;2022-12-07T04:31:35;3.20;99.90
22114;DHT22;11223;49.968;9.062;2022-12-07T04:34:01;3.20;99.90
22114;DHT22;11223;49.968;9.062;2022-12-07T04:36:26;3.20;99.90
22114;DHT22;11223;49.968;9.062;2022-12-07T04:38:56;3.20;99.90
22114;DHT22;11223;49.968;9.062;2022-12-07T04:41:22;3.20;99.90
22114;DHT22;11223;49.968;9.062;2022-12-07T04:44:02;3.20;99.90
22114;DHT22;11223;49.968;9.062;2022-12-07T04:46:30;3.30;99.90
22114;DHT22;11223;49.968;9.062;2022-12-07T04:48:56;3.30;99.90
22114;DHT22;11223;49.968;9.062;2022-12-07T04:51:24;3.30;99.90
22114;DHT22;11223;49.968;9.062;2022-12-07T04:53:50;3.30;99.90
22114;DHT22;11223;49.968;9.062;2022-12-07T04:56:17;3.30;99.90
22114;DHT22;11223;49.968;9.062;2022-12-07T04:58:44;3.30;99.90
22114;DHT22;11223;49.968;9.062;2022-12-07T05:01:10;3.30;99.90
22114;DHT22;11223;49.968;9.062;2022-12-07T05:03:36;3.30;99.90
22114;DHT22;11223;49.968;9.062;2022-12-07T05:06:03;3.30;99.90
22114;DHT22;11223;49.968;9.062;2022-12-07T05:08:29;3.30;99.90
22114;DHT22;11223;49.968;9.062;2022-12-07T05:10:54;3.30;99.90
22114;DHT22;11223;49.968;9.062;2022-12-07T05:13:20;3.30;99.90
22114;DHT22;11223;49.968;9.062;2022-12-07T05:15:49;3.30;99.90
22114;DHT22;11223;49.968;9.062;2022-12-07T05:18:14;3.30;99.90
22114;DHT22;11223;49.968;9.062;2022-12-07T05:20:41;3.30;99.90
22114;DHT22;11223;49.968;9.062;2022-12-07T05:23:07;3.40;99.90
22114;DHT22;11223;49.968;9.062;2022-12-07T05:25:33;3.40;99.90
22114;DHT22;11223;49.968;9.062;2022-12-07T05:27:58;3.40;99.90
22114;DHT22;11223;49.968;9.062;2022-12-07T05:30:25;3.40;99.90
22114;DHT22;11223;49.968;9.062;2022-12-07T05:32:51;3.40;99.90
22114;DHT22;11223;49.968;9.062;2022-12-07T05:35:17;3.40;99.90
22114;DHT22;11223;49.968;9.062;2022-12-07T05:37:43;3.40;99.90
22114;DHT22;11223;49.968;9.062;2022-12-07T05:40:10;3.40;99.90
22114;DHT22;11223;49.968;9.062;2022-12-07T05:42:36;3.40;99.90
22114;DHT22;11223;49.968;9.062;2022-12-07T05:45:01;3.40;99.90
22114;DHT22;11223;49.968;9.062;2022-12-07T05:47:27;3.40;99.90
22114;DHT22;11223;49.968;9.062;2022-12-07T05:49:52;3.40;99.90
22114;DHT22;11223;49.968;9.062;2022-12-07T05:52:18;3.40;99.90
22114;DHT22;11223;49.968;9.062;2022-12-07T05:54:44;3.40;99.90
22114;DHT22;11223;49.968;9.062;2022-12-07T05:57:09;3.40;99.90
22114;DHT22;11223;49.968;9.062;2022-12-07T05:59:35;3.40;99.90
22114;DHT22;11223;49.968;9.062;2022-12-07T06:02:03;3.50;99.90
22114;DHT22;11223;49.968;9.062;2022-12-07T06:04:32;3.40;99.90
22114;DHT22;11223;49.968;9.062;2022-12-07T06:06:58;3.40;99.90
22114;DHT22;11223;49.968;9.062;2022-12-07T06:09:25;3.50;99.90
22114;DHT22;11223;49.968;9.062;2022-12-07T06:11:52;3.50;99.90
22114;DHT22;11223;49.968;9.062;2022-12-07T06:14:36;3.50;99.90
22114;DHT22;11223;49.968;9.062;2022-12-07T06:17:02;3.50;99.90
22114;DHT22;11223;49.968;9.062;2022-12-07T06:19:27;3.50;99.90
22114;DHT22;11223;49.968;9.062;2022-12-07T06:21:54;3.50;99.90
22114;DHT22;11223;49.968;9.062;2022-12-07T06:24:19;3.50;99.90
22114;DHT22;11223;49.968;9.062;2022-12-07T06:26:45;3.50;99.90
22114;DHT22;11223;49.968;9.062;2022-12-07T06:29:12;3.50;99.90
22114;DHT22;11223;49.968;9.062;2022-12-07T06:31:38;3.50;99.90
22114;DHT22;11223;49.968;9.062;2022-12-07T06:34:06;3.50;99.90
22114;DHT22;11223;49.968;9.062;2022-12-07T06:36:32;3.50;99.90
22114;DHT22;11223;49.968;9.062;2022-12-07T06:38:58;3.50;99.90
22114;DHT22;11223;49.968;9.062;2022-12-07T06:41:24;3.50;99.90
22114;DHT22;11223;49.968;9.062;2022-12-07T06:43:50;3.50;99.90
22114;DHT22;11223;49.968;9.062;2022-12-07T06:46:16;3.50;99.90
22114;DHT22;11223;49.968;9.062;2022-12-07T06:48:42;3.50;99.90
22114;DHT22;11223;49.968;9.062;2022-12-07T06:51:08;3.50;99.90
22114;DHT22;11223;49.968;9.062;2022-12-07T06:53:34;3.60;99.90
22114;DHT22;11223;49.968;9.062;2022-12-07T06:56:00;3.60;99.90
22114;DHT22;11223;49.968;9.062;2022-12-07T06:58:25;3.60;99.90
22114;DHT22;11223;49.968;9.062;2022-12-07T07:00:51;3.60;99.90
22114;DHT22;11223;49.968;9.062;2022-12-07T07:03:17;3.60;99.90
22114;DHT22;11223;49.968;9.062;2022-12-07T07:05:44;3.60;99.90
22114;DHT22;11223;49.968;9.062;2022-12-07T07:08:10;3.60;99.90
22114;DHT22;11223;49.968;9.062;2022-12-07T07:10:36;3.60;99.90
22114;DHT22;11223;49.968;9.062;2022-12-07T07:13:02;3.60;99.90
22114;DHT22;11223;49.968;9.062;2022-12-07T07:15:28;3.60;99.90
22114;DHT22;11223;49.968;9.062;2022-12-07T07:17:53;3.70;99.90
22114;DHT22;11223;49.968;9.062;2022-12-07T07:20:19;3.70;99.90
22114;DHT22;11223;49.968;9.062;2022-12-07T07:22:45;3.70;99.90
22114;DHT22;11223;49.968;9.062;2022-12-07T07:25:10;3.70;99.90
22114;DHT22;11223;49.968;9.062;2022-12-07T07:27:36;3.70;99.90
22114;DHT22;11223;49.968;9.062;2022-12-07T07:30:02;3.70;99.90
22114;DHT22;11223;49.968;9.062;2022-12-07T07:32:28;3.70;99.90
22114;DHT22;11223;49.968;9.062;2022-12-07T07:34:54;3.70;99.90
22114;DHT22;11223;49.968;9.062;2022-12-07T07:37:20;3.80;99.90
22114;DHT22;11223;49.968;9.062;2022-12-07T07:39:45;3.80;99.90
22114;DHT22;11223;49.968;9.062;2022-12-07T07:42:11;3.80;99.90
22114;DHT22;11223;49.968;9.062;2022-12-07T07:44:36;3.80;99.90
22114;DHT22;11223;49.968;9.062;2022-12-07T07:47:02;3.80;99.90
22114;DHT22;11223;49.968;9.062;2022-12-07T07:49:28;3.80;99.90
22114;DHT22;11223;49.968;9.062;2022-12-07T07:51:54;3.90;99.90
22114;DHT22;11223;49.968;9.062;2022-12-07T07:54:19;3.90;99.90
22114;DHT22;11223;49.968;9.062;2022-12-07T07:56:45;3.90;99.90
22114;DHT22;11223;49.968;9.062;2022-12-07T07:59:11;3.90;99.90
22114;DHT22;11223;49.968;9.062;2022-12-07T08:01:36;3.90;99.90
22114;DHT22;11223;49.968;9.062;2022-12-07T08:04:02;3.90;99.90
22114;DHT22;11223;49.968;9.062;2022-12-07T08:06:27;3.90;99.90
22114;DHT22;11223;49.968;9.062;2022-12-07T08:08:53;4.00;99.90
22114;DHT22;11223;49.968;9.062;2022-12-07T08:11:19;4.00;99.90
22114;DHT22;11223;49.968;9.062;2022-12-07T08:13:47;4.00;99.90
22114;DHT22;11223;49.968;9.062;2022-12-07T08:16:13;4.00;99.90
22114;DHT22;11223;49.968;9.062;2022-12-07T08:18:41;4.10;99.90
22114;DHT22;11223;49.968;9.062;2022-12-07T08:21:09;4.20;99.90
22114;DHT22;11223;49.968;9.062;2022-12-07T08:23:36;4.20;99.90
22114;DHT22;11223;49.968;9.062;2022-12-07T08:26:08;4.30;99.90
22114;DHT22;11223;49.968;9.062;2022-12-07T08:28:34;4.30;99.90
22114;DHT22;11223;49.968;9.062;2022-12-07T08:31:11;4.30;99.90
22114;DHT22;11223;49.968;9.062;2022-12-07T08:33:37;4.40;99.90
22114;DHT22;11223;49.968;9.062;2022-12-07T08:36:05;4.40;99.90
22114;DHT22;11223;49.968;9.062;2022-12-07T08:38:31;4.40;99.90
22114;DHT22;11223;49.968;9.062;2022-12-07T08:40:58;4.50;99.90
22114;DHT22;11223;49.968;9.062;2022-12-07T08:43:24;4.60;99.90
22114;DHT22;11223;49.968;9.062;2022-12-07T08:46:05;4.60;99.90
22114;DHT22;11223;49.968;9.062;2022-12-07T08:48:32;4.70;99.90
22114;DHT22;11223;49.968;9.062;2022-12-07T08:50:58;4.70;99.90
22114;DHT22;11223;49.968;9.062;2022-12-07T08:53:24;4.70;99.90
22114;DHT22;11223;49.968;9.062;2022-12-07T08:55:50;4.80;99.90
22114;DHT22;11223;49.968;9.062;2022-12-07T08:58:16;4.90;99.90
22114;DHT22;11223;49.968;9.062;2022-12-07T09:00:41;4.90;99.90
22114;DHT22;11223;49.968;9.062;2022-12-07T09:03:07;5.00;99.90
22114;DHT22;11223;49.968;9.062;2022-12-07T09:05:33;5.00;99.90
22114;DHT22;11223;49.968;9.062;2022-12-07T09:08:01;5.00;99.90
22114;DHT22;11223;49.968;9.062;2022-12-07T09:10:27;5.00;99.90
22114;DHT22;11223;49.968;9.062;2022-12-07T09:12:53;5.00;99.90
22114;DHT22;11223;49.968;9.062;2022-12-07T09:15:19;5.10;99.90
22114;DHT22;11223;49.968;9.062;2022-12-07T09:17:44;5.10;99.90
22114;DHT22;11223;49.968;9.062;2022-12-07T09:20:10;5.20;99.90
22114;DHT22;11223;49.968;9.062;2022-12-07T09:22:36;5.20;99.90
22114;DHT22;11223;49.968;9.062;2022-12-07T09:25:03;5.30;99.90
22114;DHT22;11223;49.968;9.062;2022-12-07T09:27:29;5.30;99.90
22114;DHT22;11223;49.968;9.062;2022-12-07T09:29:55;5.40;99.90
22114;DHT22;11223;49.968;9.062;2022-12-07T09:32:21;5.50;99.90
22114;DHT22;11223;49.968;9.062;2022-12-07T09:34:47;5.60;99.90
22114;DHT22;11223;49.968;9.062;2022-12-07T09:37:12;5.80;99.90
22114;DHT22;11223;49.968;9.062;2022-12-07T09:39:38;5.80;99.90
22114;DHT22;11223;49.968;9.062;2022-12-07T09:42:04;5.80;99.90
22114;DHT22;11223;49.968;9.062;2022-12-07T09:44:32;5.70;99.90
22114;DHT22;11223;49.968;9.062;2022-12-07T09:46:58;5.60;99.90
22114;DHT22;11223;49.968;9.062;2022-12-07T09:49:25;5.60;99.90
22114;DHT22;11223;49.968;9.062;2022-12-07T09:52:03;5.50;99.90
22114;DHT22;11223;49.968;9.062;2022-12-07T09:54:45;5.50;99.90
22114;DHT22;11223;49.968;9.062;2022-12-07T09:57:12;5.50;99.90
22114;DHT22;11223;49.968;9.062;2022-12-07T09:59:40;5.50;99.90
22114;DHT22;11223;49.968;9.062;2022-12-07T10:02:40;5.40;99.90
22114;DHT22;11223;49.968;9.062;2022-12-07T10:05:12;5.60;99.90
22114;DHT22;11223;49.968;9.062;2022-12-07T10:07:39;6.10;99.90
22114;DHT22;11223;49.968;9.062;2022-12-07T10:10:17;6.50;99.90
22114;DHT22;11223;49.968;9.062;2022-12-07T10:12:59;6.80;99.90
22114;DHT22;11223;49.968;9.062;2022-12-07T10:15:47;7.10;99.90
22114;DHT22;11223;49.968;9.062;2022-12-07T10:18:29;7.10;99.90
22114;DHT22;11223;49.968;9.062;2022-12-07T10:21:16;7.00;99.90
22114;DHT22;11223;49.968;9.062;2022-12-07T10:26:32;7.40;99.90
22114;DHT22;11223;49.968;9.062;2022-12-07T10:31:42;7.50;99.90
22114;DHT22;11223;49.968;9.062;2022-12-07T10:36:47;8.00;99.90
22114;DHT22;11223;49.968;9.062;2022-12-07T10:39:19;8.20;99.90
22114;DHT22;11223;49.968;9.062;2022-12-07T10:41:59;8.40;99.90
22114;DHT22;11223;49.968;9.062;2022-12-07T10:44:34;8.50;99.90
22114;DHT22;11223;49.968;9.062;2022-12-07T10:47:28;8.50;99.90
22114;DHT22;11223;49.968;9.062;2022-12-07T10:50:17;8.50;99.90
22114;DHT22;11223;49.968;9.062;2022-12-07T11:00:43;8.00;99.90
22114;DHT22;11223;49.968;9.062;2022-12-07T11:06:13;8.00;99.90
22114;DHT22;11223;49.968;9.062;2022-12-07T11:11:59;7.90;99.90
22114;DHT22;11223;49.968;9.062;2022-12-07T11:15:08;7.80;99.90
22114;DHT22;11223;49.968;9.062;2022-12-07T11:17:44;7.60;99.90
22114;DHT22;11223;49.968;9.062;2022-12-07T11:23:18;7.30;99.90
22114;DHT22;11223;49.968;9.062;2022-12-07T11:25:55;7.20;99.90
22114;DHT22;11223;49.968;9.062;2022-12-07T11:31:36;7.10;99.90
22114;DHT22;11223;49.968;9.062;2022-12-07T11:34:21;7.20;99.90
22114;DHT22;11223;49.968;9.062;2022-12-07T11:36:53;7.30;99.90
22114;DHT22;11223;49.968;9.062;2022-12-07T11:41:49;7.30;99.90
22114;DHT22;11223;49.968;9.062;2022-12-07T11:49:43;7.40;99.90
22114;DHT22;11223;49.968;9.062;2022-12-07T11:52:27;7.40;99.90
22114;DHT22;11223;49.968;9.062;2022-12-07T11:54:54;7.30;99.90
22114;DHT22;11223;49.968;9.062;2022-12-07T11:57:33;7.40;99.90
22114;DHT22;11223;49.968;9.062;2022-12-07T12:00:05;7.40;99.90
22114;DHT22;11223;49.968;9.062;2022-12-07T12:02:59;7.50;99.90
22114;DHT22;11223;49.968;9.062;2022-12-07T12:05:24;7.50;99.90
22114;DHT22;11223;49.968;9.062;2022-12-07T12:08:21;7.50;99.90
22114;DHT22;11223;49.968;9.062;2022-12-07T12:11:00;7.50;99.90
22114;DHT22;11223;49.968;9.062;2022-12-07T12:16:41;7.50;99.90
22114;DHT22;11223;49.968;9.062;2022-12-07T12:19:22;7.40;99.90
22114;DHT22;11223;49.968;9.062;2022-12-07T12:21:55;7.30;99.90
22114;DHT22;11223;49.968;9.062;2022-12-07T12:24:31;7.30;99.90
22114;DHT22;11223;49.968;9.062;2022-12-07T12:27:23;7.20;99.90
22114;DHT22;11223;49.968;9.062;2022-12-07T12:29:59;7.20;99.90
22114;DHT22;11223;49.968;9.062;2022-12-07T12:32:40;7.10;99.90
22114;DHT22;11223;49.968;9.062;2022-12-07T12:37:54;7.10;99.90
22114;DHT22;11223;49.968;9.062;2022-12-07T12:42:46;7.10;99.90
22114;DHT22;11223;49.968;9.062;2022-12-07T12:45:30;7.00;99.90
22114;DHT22;11223;49.968;9.062;2022-12-07T12:48:35;7.00;99.90
22114;DHT22;11223;49.968;9.062;2022-12-07T12:51:54;6.90;99.90
22114;DHT22;11223;49.968;9.062;2022-12-07T13:01:49;7.20;99.90
22114;DHT22;11223;49.968;9.062;2022-12-07T13:23:40;6.90;99.90
22114;DHT22;11223;49.968;9.062;2022-12-07T13:28:45;6.80;99.90
22114;DHT22;11223;49.968;9.062;2022-12-07T13:33:56;6.70;99.90
22114;DHT22;11223;49.968;9.062;2022-12-07T13:36:26;6.70;99.90
22114;DHT22;11223;49.968;9.062;2022-12-07T13:38:57;6.60;99.90
22114;DHT22;11223;49.968;9.062;2022-12-07T13:41:26;6.60;99.90
22114;DHT22;11223;49.968;9.062;2022-12-07T13:43:53;6.50;99.90
22114;DHT22;11223;49.968;9.062;2022-12-07T13:46:25;6.50;99.90
22114;DHT22;11223;49.968;9.062;2022-12-07T13:48:52;6.50;99.90
22114;DHT22;11223;49.968;9.062;2022-12-07T13:51:36;6.40;99.90
22114;DHT22;11223;49.968;9.062;2022-12-07T13:54:10;6.40;99.90
22114;DHT22;11223;49.968;9.062;2022-12-07T13:56:37;6.40;99.90
22114;DHT22;11223;49.968;9.062;2022-12-07T13:59:10;6.30;99.90
22114;DHT22;11223;49.968;9.062;2022-12-07T14:01:38;6.30;99.90
22114;DHT22;11223;49.968;9.062;2022-12-07T14:04:35;6.30;99.90
22114;DHT22;11223;49.968;9.062;2022-12-07T14:07:23;6.30;99.90
22114;DHT22;11223;49.968;9.062;2022-12-07T14:10:01;6.20;99.90
22114;DHT22;11223;49.968;9.062;2022-12-07T14:12:28;6.20;99.90
22114;DHT22;11223;49.968;9.062;2022-12-07T14:14:55;6.10;99.90
22114;DHT22;11223;49.968;9.062;2022-12-07T14:17:23;6.00;99.90
22114;DHT22;11223;49.968;9.062;2022-12-07T14:19:52;5.90;99.90
22114;DHT22;11223;49.968;9.062;2022-12-07T14:22:53;5.80;99.90
22114;DHT22;11223;49.968;9.062;2022-12-07T14:25:21;5.70;99.90
22114;DHT22;11223;49.968;9.062;2022-12-07T14:27:59;5.70;99.90
22114;DHT22;11223;49.968;9.062;2022-12-07T14:30:30;5.60;99.90
22114;DHT22;11223;49.968;9.062;2022-12-07T14:33:02;5.60;99.90
22114;DHT22;11223;49.968;9.062;2022-12-07T14:35:28;5.50;99.90
22114;DHT22;11223;49.968;9.062;2022-12-07T14:37:54;5.50;99.90
22114;DHT22;11223;49.968;9.062;2022-12-07T14:40:26;5.40;99.90
22114;DHT22;11223;49.968;9.062;2022-12-07T14:42:59;5.40;99.90
22114;DHT22;11223;49.968;9.062;2022-12-07T14:45:26;5.30;99.90
22114;DHT22;11223;49.968;9.062;2022-12-07T14:47:51;5.30;99.90
22114;DHT22;11223;49.968;9.062;2022-12-07T14:50:19;5.20;99.90
22114;DHT22;11223;49.968;9.062;2022-12-07T14:52:50;5.20;99.90
22114;DHT22;11223;49.968;9.062;2022-12-07T14:55:24;5.10;99.90
22114;DHT22;11223;49.968;9.062;2022-12-07T14:57:50;5.10;99.90
22114;DHT22;11223;49.968;9.062;2022-12-07T15:00:17;5.00;99.90
22114;DHT22;11223;49.968;9.062;2022-12-07T15:02:44;5.00;99.90
22114;DHT22;11223;49.968;9.062;2022-12-07T15:05:10;5.00;99.90
22114;DHT22;11223;49.968;9.062;2022-12-07T15:07:36;5.00;99.90
22114;DHT22;11223;49.968;9.062;2022-12-07T15:10:02;5.00;99.90
22114;DHT22;11223;49.968;9.062;2022-12-07T15:12:28;4.90;99.90
22114;DHT22;11223;49.968;9.062;2022-12-07T15:14:54;4.90;99.90
22114;DHT22;11223;49.968;9.062;2022-12-07T15:17:19;4.90;99.90
22114;DHT22;11223;49.968;9.062;2022-12-07T15:19:45;4.90;99.90
22114;DHT22;11223;49.968;9.062;2022-12-07T15:22:10;4.90;99.90
22114;DHT22;11223;49.968;9.062;2022-12-07T15:24:36;4.80;99.90
22114;DHT22;11223;49.968;9.062;2022-12-07T15:27:02;4.80;99.90
22114;DHT22;11223;49.968;9.062;2022-12-07T15:29:28;4.80;99.90
22114;DHT22;11223;49.968;9.062;2022-12-07T15:31:55;4.80;99.90
22114;DHT22;11223;49.968;9.062;2022-12-07T15:34:21;4.80;99.90
22114;DHT22;11223;49.968;9.062;2022-12-07T15:36:46;4.70;99.90
22114;DHT22;11223;49.968;9.062;2022-12-07T15:39:12;4.70;99.90
22114;DHT22;11223;49.968;9.062;2022-12-07T15:41:38;4.70;99.90
22114;DHT22;11223;49.968;9.062;2022-12-07T15:44:04;4.70;99.90
22114;DHT22;11223;49.968;9.062;2022-12-07T15:46:48;4.70;99.90
22114;DHT22;11223;49.968;9.062;2022-12-07T15:49:19;4.60;99.90
22114;DHT22;11223;49.968;9.062;2022-12-07T15:51:45;4.60;99.90
22114;DHT22;11223;49.968;9.062;2022-12-07T15:54:29;4.60;99.90
22114;DHT22;11223;49.968;9.062;2022-12-07T15:56:56;4.60;99.90
22114;DHT22;11223;49.968;9.062;2022-12-07T15:59:21;4.60;99.90
22114;DHT22;11223;49.968;9.062;2022-12-07T16:01:47;4.50;99.90
22114;DHT22;11223;49.968;9.062;2022-12-07T16:04:13;4.50;99.90
22114;DHT22;11223;49.968;9.062;2022-12-07T16:06:39;4.50;99.90
22114;DHT22;11223;49.968;9.062;2022-12-07T16:09:05;4.60;99.90
22114;DHT22;11223;49.968;9.062;2022-12-07T16:11:31;4.50;99.90
22114;DHT22;11223;49.968;9.062;2022-12-07T16:13:57;4.50;99.90
22114;DHT22;11223;49.968;9.062;2022-12-07T16:16:23;4.50;99.90
22114;DHT22;11223;49.968;9.062;2022-12-07T16:18:49;4.50;99.90
22114;DHT22;11223;49.968;9.062;2022-12-07T16:21:16;4.40;99.90
22114;DHT22;11223;49.968;9.062;2022-12-07T16:23:42;4.40;99.90
22114;DHT22;11223;49.968;9.062;2022-12-07T16:26:11;4.40;99.90
22114;DHT22;11223;49.968;9.062;2022-12-07T16:28:37;4.40;99.90
22114;DHT22;11223;49.968;9.062;2022-12-07T16:31:15;4.40;99.90
22114;DHT22;11223;49.968;9.062;2022-12-07T16:33:43;4.40;99.90
22114;DHT22;11223;49.968;9.062;2022-12-07T16:36:10;4.40;99.90
22114;DHT22;11223;49.968;9.062;2022-12-07T16:38:37;4.30;99.90
22114;DHT22;11223;49.968;9.062;2022-12-07T16:41:04;4.30;99.90
22114;DHT22;11223;49.968;9.062;2022-12-07T16:43:30;4.30;99.90
22114;DHT22;11223;49.968;9.062;2022-12-07T16:45:55;4.30;99.90
22114;DHT22;11223;49.968;9.062;2022-12-07T16:48:21;4.30;99.90
22114;DHT22;11223;49.968;9.062;2022-12-07T16:50:47;4.30;99.90
22114;DHT22;11223;49.968;9.062;2022-12-07T16:53:13;4.20;99.90
22114;DHT22;11223;49.968;9.062;2022-12-07T16:55:42;4.20;99.90
22114;DHT22;11223;49.968;9.062;2022-12-07T16:58:08;4.20;99.90
22114;DHT22;11223;49.968;9.062;2022-12-07T17:00:34;4.20;99.90
22114;DHT22;11223;49.968;9.062;2022-12-07T17:03:01;4.20;99.90
22114;DHT22;11223;49.968;9.062;2022-12-07T17:05:27;4.10;99.90
22114;DHT22;11223;49.968;9.062;2022-12-07T17:07:55;4.20;99.90
22114;DHT22;11223;49.968;9.062;2022-12-07T17:10:21;4.10;99.90
22114;DHT22;11223;49.968;9.062;2022-12-07T17:12:46;4.10;99.90
22114;DHT22;11223;49.968;9.062;2022-12-07T17:15:12;4.10;99.90
22114;DHT22;11223;49.968;9.062;2022-12-07T17:17:52;4.10;99.90
22114;DHT22;11223;49.968;9.062;2022-12-07T17:20:18;4.10;99.90
22114;DHT22;11223;49.968;9.062;2022-12-07T17:22:45;4.10;99.90
22114;DHT22;11223;49.968;9.062;2022-12-07T17:25:10;4.10;99.90
22114;DHT22;11223;49.968;9.062;2022-12-07T17:27:37;4.00;99.90
22114;DHT22;11223;49.968;9.062;2022-12-07T17:30:06;4.00;99.90
22114;DHT22;11223;49.968;9.062;2022-12-07T17:32:32;4.00;99.90
22114;DHT22;11223;49.968;9.062;2022-12-07T17:34:58;4.00;99.90
22114;DHT22;11223;49.968;9.062;2022-12-07T17:37:25;4.00;99.90
22114;DHT22;11223;49.968;9.062;2022-12-07T17:39:52;4.00;99.90
22114;DHT22;11223;49.968;9.062;2022-12-07T17:42:19;3.90;99.90
22114;DHT22;11223;49.968;9.062;2022-12-07T17:45:06;3.90;99.90
22114;DHT22;11223;49.968;9.062;2022-12-07T17:47:33;4.00;99.90
22114;DHT22;11223;49.968;9.062;2022-12-07T17:49:58;3.90;99.90